Terminal Aerodrome Forecast
Issued by NWS

Home | Current Version | Previous Version | Text Only | Print | Product List | Glossary On
Versions: 1 2 3 4 5 6 7 8 9 10 11 12 13 14 15 16 17 18 19 20 21 22
000
FTUS41 KOKX 092320
TAFSWF
TAF
KSWF 092320Z 1000/1106 VRB02KT P6SM SCT050 BKN080
      TEMPO 1001/1004 3SM -SN SCT020 BKN030
     FM100400 VRB02KT 1SM -SN BR BKN009 OVC015
      TEMPO 1008/1011 1/2SM SN OVC005
     FM101300 27008KT P6SM SCT020 BKN035
     FM101700 28011KT P6SM BKN040
     FM110000 27008KT P6SM BKN040
      AMD NOT SKED=

USA.gov is the U.S. government's official web portal to all federal, state and local government web resources and services.